Terminal Aerodrome Forecast
Issued by NWS Jackson, MS

Home | Current Version | Previous Version | Text Only | Print | Product List | Glossary On
Versions: 1 2 3 4 5 6 7 8 9 10 11 12 13 14 15 16 17
000
FTUS44 KJAN 282300
TAFHBG
TAF
KHBG 282322Z 0100/0124 13002KT P6SM SCT100
     FM010300 13003KT P6SM OVC100
     FM010400 11003KT P6SM OVC050
     FM010500 12003KT 4SM BR OVC015
     FM010600 10002KT 4SM BR OVC007
     FM010900 09002KT 1 1/2SM BR OVC003
     FM011500 VRB03KT 4SM BR OVC007=

USA.gov is the U.S. government's official web portal to all federal, state and local government web resources and services.